sensor_id;sensor_type;location;lat;lon;timestamp;pressure;altitude;pressure_sealevel;temperature;humidity
4346;BME280;2186;49.866;7.986;2024-02-21T00:00:02;101183.59;;;10.49;86.65
4346;BME280;2186;49.866;7.986;2024-02-21T00:02:29;101180.72;;;10.64;86.39
4346;BME280;2186;49.866;7.986;2024-02-21T00:04:55;101162.25;;;10.53;86.27
4346;BME280;2186;49.866;7.986;2024-02-21T00:07:22;101150.78;;;10.51;86.83
4346;BME280;2186;49.866;7.986;2024-02-21T00:09:49;101153.59;;;10.42;86.93
4346;BME280;2186;49.866;7.986;2024-02-21T00:12:15;101150.94;;;10.41;87.27
4346;BME280;2186;49.866;7.986;2024-02-21T00:14:42;101150.06;;;10.40;87.93
4346;BME280;2186;49.866;7.986;2024-02-21T00:17:08;101149.28;;;10.33;87.72
4346;BME280;2186;49.866;7.986;2024-02-21T00:19:35;101142.22;;;10.31;88.15
4346;BME280;2186;49.866;7.986;2024-02-21T00:22:02;101142.25;;;10.28;88.57
4346;BME280;2186;49.866;7.986;2024-02-21T00:24:28;101140.44;;;10.31;88.25
4346;BME280;2186;49.866;7.986;2024-02-21T00:26:55;101139.63;;;10.25;88.35
4346;BME280;2186;49.866;7.986;2024-02-21T00:29:21;101125.53;;;10.21;88.58
4346;BME280;2186;49.866;7.986;2024-02-21T00:31:49;101125.50;;;10.20;88.61
4346;BME280;2186;49.866;7.986;2024-02-21T00:34:16;101116.63;;;10.21;88.47
4346;BME280;2186;49.866;7.986;2024-02-21T00:36:42;101109.66;;;10.15;88.33
4346;BME280;2186;49.866;7.986;2024-02-21T00:39:09;101097.69;;;10.47;88.08
4346;BME280;2186;49.866;7.986;2024-02-21T00:41:35;101098.03;;;10.21;87.51
4346;BME280;2186;49.866;7.986;2024-02-21T00:44:02;101097.22;;;10.14;87.98
4346;BME280;2186;49.866;7.986;2024-02-21T00:46:28;101088.31;;;10.21;87.71
4346;BME280;2186;49.866;7.986;2024-02-21T00:48:55;101096.56;;;10.01;88.75
4346;BME280;2186;49.866;7.986;2024-02-21T00:51:21;101091.13;;;10.09;87.79
4346;BME280;2186;49.866;7.986;2024-02-21T00:53:48;101097.22;;;10.17;87.62
4346;BME280;2186;49.866;7.986;2024-02-21T00:56:14;101095.47;;;10.16;87.41
4346;BME280;2186;49.866;7.986;2024-02-21T00:58:40;101103.28;;;10.27;87.07
4346;BME280;2186;49.866;7.986;2024-02-21T01:01:07;101106.97;;;10.17;87.52
4346;BME280;2186;49.866;7.986;2024-02-21T01:03:33;101106.97;;;10.17;86.88
4346;BME280;2186;49.866;7.986;2024-02-21T01:06:00;101106.13;;;10.15;86.83
4346;BME280;2186;49.866;7.986;2024-02-21T01:08:26;101117.69;;;10.07;87.52
4346;BME280;2186;49.866;7.986;2024-02-21T01:10:53;101120.34;;;10.09;87.42
4346;BME280;2186;49.866;7.986;2024-02-21T01:13:19;101125.66;;;10.09;87.64
4346;BME280;2186;49.866;7.986;2024-02-21T01:15:46;101121.88;;;10.27;86.72
4346;BME280;2186;49.866;7.986;2024-02-21T01:18:12;101109.56;;;10.20;86.61
4346;BME280;2186;49.866;7.986;2024-02-21T01:20:39;101107.81;;;10.19;86.83
4346;BME280;2186;49.866;7.986;2024-02-21T01:23:06;101102.41;;;10.26;86.94
4346;BME280;2186;49.866;7.986;2024-02-21T01:25:32;101103.28;;;10.30;86.70
4346;BME280;2186;49.866;7.986;2024-02-21T01:27:58;101083.41;;;10.54;85.28
4346;BME280;2186;49.866;7.986;2024-02-21T01:30:25;101082.03;;;10.27;85.15
4346;BME280;2186;49.866;7.986;2024-02-21T01:32:51;101079.44;;;10.21;86.26
4346;BME280;2186;49.866;7.986;2024-02-21T01:35:18;101071.47;;;10.21;86.20
4346;BME280;2186;49.866;7.986;2024-02-21T01:37:44;101067.06;;;10.21;86.19
4346;BME280;2186;49.866;7.986;2024-02-21T01:40:11;101060.03;;;10.14;86.79
4346;BME280;2186;49.866;7.986;2024-02-21T01:42:39;101055.69;;;10.10;86.49
4346;BME280;2186;49.866;7.986;2024-02-21T01:45:07;101055.81;;;10.02;87.02
4346;BME280;2186;49.866;7.986;2024-02-21T01:47:34;101051.25;;;10.10;86.63
4346;BME280;2186;49.866;7.986;2024-02-21T01:50:01;101041.69;;;9.97;87.13
4346;BME280;2186;49.866;7.986;2024-02-21T01:52:30;101034.47;;;10.07;87.28
4346;BME280;2186;49.866;7.986;2024-02-21T01:54:57;101036.47;;;9.91;87.64
4346;BME280;2186;49.866;7.986;2024-02-21T01:57:24;101038.91;;;10.06;87.27
4346;BME280;2186;49.866;7.986;2024-02-21T01:59:51;101027.25;;;10.18;86.66
4346;BME280;2186;49.866;7.986;2024-02-21T02:02:18;101031.25;;;9.84;87.98
4346;BME280;2186;49.866;7.986;2024-02-21T02:04:45;101029.63;;;9.75;88.49
4346;BME280;2186;49.866;7.986;2024-02-21T02:07:12;101036.84;;;9.64;89.09
4346;BME280;2186;49.866;7.986;2024-02-21T02:09:39;101029.69;;;9.69;89.73
4346;BME280;2186;49.866;7.986;2024-02-21T02:12:05;101032.22;;;9.79;89.26
4346;BME280;2186;49.866;7.986;2024-02-21T02:14:32;101025.03;;;9.86;89.52
4346;BME280;2186;49.866;7.986;2024-02-21T02:16:58;101024.22;;;9.81;89.24
4346;BME280;2186;49.866;7.986;2024-02-21T02:19:25;101024.28;;;9.76;89.65
4346;BME280;2186;49.866;7.986;2024-02-21T02:21:55;101025.25;;;9.69;89.97
4346;BME280;2186;49.866;7.986;2024-02-21T02:24:24;101015.53;;;9.68;90.16
4346;BME280;2186;49.866;7.986;2024-02-21T02:26:52;101002.38;;;9.62;90.25
4346;BME280;2186;49.866;7.986;2024-02-21T02:29:18;101002.38;;;9.62;90.63
4346;BME280;2186;49.866;7.986;2024-02-21T02:31:45;101012.22;;;9.53;91.29
4346;BME280;2186;49.866;7.986;2024-02-21T02:34:12;100999.00;;;9.49;91.77
4346;BME280;2186;49.866;7.986;2024-02-21T02:36:38;100996.34;;;9.48;91.07
4346;BME280;2186;49.866;7.986;2024-02-21T02:39:05;100995.53;;;9.43;91.90
4346;BME280;2186;49.866;7.986;2024-02-21T02:41:35;100998.16;;;9.46;92.04
4346;BME280;2186;49.866;7.986;2024-02-21T02:44:01;101007.06;;;9.40;92.10
4346;BME280;2186;49.866;7.986;2024-02-21T02:46:28;100999.78;;;9.55;91.69
4346;BME280;2186;49.866;7.986;2024-02-21T02:48:54;100985.56;;;9.62;91.28
4346;BME280;2186;49.866;7.986;2024-02-21T02:51:21;100984.75;;;9.55;91.52
4346;BME280;2186;49.866;7.986;2024-02-21T02:53:47;100991.13;;;9.42;91.91
4346;BME280;2186;49.866;7.986;2024-02-21T02:56:14;100988.47;;;9.40;92.13
4346;BME280;2186;49.866;7.986;2024-02-21T02:58:43;100977.81;;;9.43;91.98
4346;BME280;2186;49.866;7.986;2024-02-21T03:01:09;100976.19;;;9.35;92.28
4346;BME280;2186;49.866;7.986;2024-02-21T03:03:36;100975.50;;;9.19;92.89
4346;BME280;2186;49.866;7.986;2024-02-21T03:06:03;100974.66;;;9.14;93.44
4346;BME280;2186;49.866;7.986;2024-02-21T03:08:29;100961.41;;;9.12;93.68
4346;BME280;2186;49.866;7.986;2024-02-21T03:10:56;100970.28;;;9.10;93.87
4346;BME280;2186;49.866;7.986;2024-02-21T03:13:22;100965.75;;;9.19;93.89
4346;BME280;2186;49.866;7.986;2024-02-21T03:15:49;100967.56;;;9.14;94.18
4346;BME280;2186;49.866;7.986;2024-02-21T03:18:15;100958.72;;;9.15;94.43
4346;BME280;2186;49.866;7.986;2024-02-21T03:20:42;100951.66;;;9.14;94.75
4346;BME280;2186;49.866;7.986;2024-02-21T03:23:08;100941.00;;;9.20;94.39
4346;BME280;2186;49.866;7.986;2024-02-21T03:25:35;100934.69;;;9.28;93.96
4346;BME280;2186;49.866;7.986;2024-02-21T03:28:01;100944.34;;;9.35;93.86
4346;BME280;2186;49.866;7.986;2024-02-21T03:30:28;100947.69;;;9.49;93.22
4346;BME280;2186;49.866;7.986;2024-02-21T03:32:54;100942.31;;;9.54;92.33
4346;BME280;2186;49.866;7.986;2024-02-21T03:35:21;100951.75;;;9.74;92.14
4346;BME280;2186;49.866;7.986;2024-02-21T03:37:47;100953.91;;;10.06;91.21
4346;BME280;2186;49.866;7.986;2024-02-21T03:40:13;100951.75;;;9.74;90.98
4346;BME280;2186;49.866;7.986;2024-02-21T03:42:40;100961.31;;;9.85;90.73
4346;BME280;2186;49.866;7.986;2024-02-21T03:45:07;100960.63;;;9.72;90.99
4346;BME280;2186;49.866;7.986;2024-02-21T03:47:33;100955.28;;;9.75;90.57
4346;BME280;2186;49.866;7.986;2024-02-21T03:50:00;100955.84;;;9.97;89.21
4346;BME280;2186;49.866;7.986;2024-02-21T03:52:27;100969.38;;;9.80;88.98
4346;BME280;2186;49.866;7.986;2024-02-21T03:54:53;100960.84;;;9.57;90.21
4346;BME280;2186;49.866;7.986;2024-02-21T03:57:21;100956.25;;;9.69;89.31
4346;BME280;2186;49.866;7.986;2024-02-21T03:59:50;100951.78;;;9.71;89.49
4346;BME280;2186;49.866;7.986;2024-02-21T04:02:17;100946.47;;;9.71;89.46
4346;BME280;2186;49.866;7.986;2024-02-21T04:04:44;100937.59;;;9.72;89.50
4346;BME280;2186;49.866;7.986;2024-02-21T04:07:14;100927.25;;;9.56;89.88
4346;BME280;2186;49.866;7.986;2024-02-21T04:09:40;100914.78;;;9.62;89.73
4346;BME280;2186;49.866;7.986;2024-02-21T04:12:08;100910.38;;;9.61;89.43
4346;BME280;2186;49.866;7.986;2024-02-21T04:14:35;100910.56;;;9.47;90.31
4346;BME280;2186;49.866;7.986;2024-02-21T04:17:02;100916.78;;;9.46;90.77
4346;BME280;2186;49.866;7.986;2024-02-21T04:19:28;100914.13;;;9.43;91.13
4346;BME280;2186;49.866;7.986;2024-02-21T04:21:55;100912.38;;;9.42;91.27
4346;BME280;2186;49.866;7.986;2024-02-21T04:24:21;100910.59;;;9.43;91.22
4346;BME280;2186;49.866;7.986;2024-02-21T04:26:48;100915.03;;;9.42;91.30
4346;BME280;2186;49.866;7.986;2024-02-21T04:29:14;100916.00;;;9.38;91.38
4346;BME280;2186;49.866;7.986;2024-02-21T04:31:41;100910.75;;;9.34;91.41
4346;BME280;2186;49.866;7.986;2024-02-21T04:34:07;100895.72;;;9.31;91.58
4346;BME280;2186;49.866;7.986;2024-02-21T04:36:34;100889.56;;;9.31;91.80
4346;BME280;2186;49.866;7.986;2024-02-21T04:39:00;100880.78;;;9.26;91.49
4346;BME280;2186;49.866;7.986;2024-02-21T04:41:27;100883.63;;;9.12;92.12
4346;BME280;2186;49.866;7.986;2024-02-21T04:43:53;100870.41;;;9.09;92.84
4346;BME280;2186;49.866;7.986;2024-02-21T04:46:20;100885.31;;;9.16;92.21
4346;BME280;2186;49.866;7.986;2024-02-21T04:48:46;100879.09;;;9.20;92.18
4346;BME280;2186;49.866;7.986;2024-02-21T04:51:12;100878.28;;;9.13;92.19
4346;BME280;2186;49.866;7.986;2024-02-21T04:53:40;100877.22;;;9.28;91.76
4346;BME280;2186;49.866;7.986;2024-02-21T04:56:06;100878.28;;;9.15;91.66
4346;BME280;2186;49.866;7.986;2024-02-21T04:58:33;100866.75;;;9.16;91.56
4346;BME280;2186;49.866;7.986;2024-02-21T05:00:59;100865.91;;;9.14;90.65
4346;BME280;2186;49.866;7.986;2024-02-21T05:03:26;100878.28;;;9.13;90.94
4346;BME280;2186;49.866;7.986;2024-02-21T05:05:52;100884.44;;;9.18;90.38
4346;BME280;2186;49.866;7.986;2024-02-21T05:08:19;100884.44;;;9.18;90.31
4346;BME280;2186;49.866;7.986;2024-02-21T05:10:45;100888.78;;;9.24;90.10
4346;BME280;2186;49.866;7.986;2024-02-21T05:13:12;100889.78;;;9.14;90.30
4346;BME280;2186;49.866;7.986;2024-02-21T05:15:39;100892.41;;;9.18;90.20
4346;BME280;2186;49.866;7.986;2024-02-21T05:18:05;100886.25;;;9.13;89.51
4346;BME280;2186;49.866;7.986;2024-02-21T05:20:32;100882.59;;;9.24;89.60
4346;BME280;2186;49.866;7.986;2024-02-21T05:22:58;100876.13;;;9.41;88.89
4346;BME280;2186;49.866;7.986;2024-02-21T05:25:25;100878.13;;;9.27;89.26
4346;BME280;2186;49.866;7.986;2024-02-21T05:27:52;100882.19;;;9.51;88.14
4346;BME280;2186;49.866;7.986;2024-02-21T05:30:20;100876.88;;;9.53;88.27
4346;BME280;2186;49.866;7.986;2024-02-21T05:32:46;100867.16;;;9.52;87.43
4346;BME280;2186;49.866;7.986;2024-02-21T05:35:13;100876.03;;;9.49;86.98
4346;BME280;2186;49.866;7.986;2024-02-21T05:37:39;100860.41;;;9.29;87.97
4346;BME280;2186;49.866;7.986;2024-02-21T05:40:06;100863.34;;;9.69;86.90
4346;BME280;2186;49.866;7.986;2024-02-21T05:42:33;100857.50;;;9.44;87.01
4346;BME280;2186;49.866;7.986;2024-02-21T05:44:59;100858.38;;;9.45;87.13
4346;BME280;2186;49.866;7.986;2024-02-21T05:47:26;100861.16;;;9.39;87.45
4346;BME280;2186;49.866;7.986;2024-02-21T05:49:52;100861.97;;;9.42;87.87
4346;BME280;2186;49.866;7.986;2024-02-21T05:52:20;100863.34;;;9.69;86.87
4346;BME280;2186;49.866;7.986;2024-02-21T05:54:47;100858.25;;;9.54;87.08
4346;BME280;2186;49.866;7.986;2024-02-21T05:57:19;100857.59;;;9.40;87.46
4346;BME280;2186;49.866;7.986;2024-02-21T05:59:45;100857.66;;;9.37;87.67
4346;BME280;2186;49.866;7.986;2024-02-21T06:02:12;100852.13;;;9.50;87.51
4346;BME280;2186;49.866;7.986;2024-02-21T06:04:39;100851.91;;;9.64;86.41
4346;BME280;2186;49.866;7.986;2024-02-21T06:07:06;100849.47;;;9.50;87.59
4346;BME280;2186;49.866;7.986;2024-02-21T06:09:32;100846.63;;;9.63;86.45
4346;BME280;2186;49.866;7.986;2024-02-21T06:11:59;100835.38;;;9.47;87.74
4346;BME280;2186;49.866;7.986;2024-02-21T06:14:25;100841.81;;;9.32;87.72
4346;BME280;2186;49.866;7.986;2024-02-21T06:16:52;100840.69;;;9.45;87.09
4346;BME280;2186;49.866;7.986;2024-02-21T06:19:18;100830.41;;;9.24;86.29
4346;BME280;2186;49.866;7.986;2024-02-21T06:21:45;100828.53;;;9.31;86.83
4346;BME280;2186;49.866;7.986;2024-02-21T06:24:11;100828.56;;;9.29;86.13
4346;BME280;2186;49.866;7.986;2024-02-21T06:26:40;100821.16;;;9.51;85.91
4346;BME280;2186;49.866;7.986;2024-02-21T06:29:06;100825.69;;;9.46;85.96
4346;BME280;2186;49.866;7.986;2024-02-21T06:31:33;100822.25;;;9.38;86.18
4346;BME280;2186;49.866;7.986;2024-02-21T06:34:00;100822.09;;;9.48;85.35
4346;BME280;2186;49.866;7.986;2024-02-21T06:36:26;100823.03;;;9.43;85.37
4346;BME280;2186;49.866;7.986;2024-02-21T06:38:53;100816.16;;;9.30;85.43
4346;BME280;2186;49.866;7.986;2024-02-21T06:41:19;100824.16;;;9.28;85.85
4346;BME280;2186;49.866;7.986;2024-02-21T06:43:46;100818.94;;;9.22;85.75
4346;BME280;2186;49.866;7.986;2024-02-21T06:46:26;100822.69;;;9.07;86.33
4346;BME280;2186;49.866;7.986;2024-02-21T06:48:55;100831.44;;;9.14;86.09
4346;BME280;2186;49.866;7.986;2024-02-21T06:51:25;100822.44;;;9.26;85.89
4346;BME280;2186;49.866;7.986;2024-02-21T06:53:52;100816.19;;;9.28;85.80
4346;BME280;2186;49.866;7.986;2024-02-21T06:56:18;100817.22;;;9.18;85.72
4346;BME280;2186;49.866;7.986;2024-02-21T06:58:45;100813.69;;;9.20;85.91
4346;BME280;2186;49.866;7.986;2024-02-21T07:01:12;100808.81;;;9.50;85.22
4346;BME280;2186;49.866;7.986;2024-02-21T07:03:38;100810.84;;;9.31;85.05
4346;BME280;2186;49.866;7.986;2024-02-21T07:06:05;100800.31;;;9.27;84.49
4346;BME280;2186;49.866;7.986;2024-02-21T07:08:31;100804.66;;;9.31;85.14
4346;BME280;2186;49.866;7.986;2024-02-21T07:10:58;100809.06;;;9.32;84.96
4346;BME280;2186;49.866;7.986;2024-02-21T07:13:24;100799.47;;;9.78;84.52
4346;BME280;2186;49.866;7.986;2024-02-21T07:15:51;100819.06;;;9.70;83.25
4346;BME280;2186;49.866;7.986;2024-02-21T07:18:17;100816.88;;;9.42;84.32
4346;BME280;2186;49.866;7.986;2024-02-21T07:20:44;100811.63;;;9.38;84.19
4346;BME280;2186;49.866;7.986;2024-02-21T07:23:11;100817.44;;;9.63;83.60
4346;BME280;2186;49.866;7.986;2024-02-21T07:25:38;100819.66;;;9.35;84.76
4346;BME280;2186;49.866;7.986;2024-02-21T07:28:05;100818.56;;;9.48;84.37
4346;BME280;2186;49.866;7.986;2024-02-21T07:30:33;100810.81;;;9.34;84.81
4346;BME280;2186;49.866;7.986;2024-02-21T07:32:59;100811.47;;;9.48;84.67
4346;BME280;2186;49.866;7.986;2024-02-21T07:35:26;100816.69;;;9.53;84.44
4346;BME280;2186;49.866;7.986;2024-02-21T07:37:52;100810.38;;;9.62;84.21
4346;BME280;2186;49.866;7.986;2024-02-21T07:40:19;100802.59;;;9.51;84.00
4346;BME280;2186;49.866;7.986;2024-02-21T07:42:45;100800.81;;;9.52;84.95
4346;BME280;2186;49.866;7.986;2024-02-21T07:45:17;100795.41;;;9.56;83.61
4346;BME280;2186;49.866;7.986;2024-02-21T07:47:45;100781.84;;;9.74;83.50
4346;BME280;2186;49.866;7.986;2024-02-21T07:50:12;100788.22;;;9.64;82.84
4346;BME280;2186;49.866;7.986;2024-02-21T07:52:38;100787.13;;;9.76;82.79
4346;BME280;2186;49.866;7.986;2024-02-21T07:55:05;100785.78;;;10.03;82.42
4346;BME280;2186;49.866;7.986;2024-02-21T07:57:31;100775.69;;;9.71;83.09
4346;BME280;2186;49.866;7.986;2024-02-21T07:59:58;100778.41;;;9.68;83.83
4346;BME280;2186;49.866;7.986;2024-02-21T08:02:24;100777.63;;;9.63;83.64
4346;BME280;2186;49.866;7.986;2024-02-21T08:04:51;100779.16;;;9.77;83.61
4346;BME280;2186;49.866;7.986;2024-02-21T08:07:17;100772.97;;;9.77;83.00
4346;BME280;2186;49.866;7.986;2024-02-21T08:09:44;100776.41;;;9.82;82.51
4346;BME280;2186;49.866;7.986;2024-02-21T08:12:10;100766.81;;;10.23;82.25
4346;BME280;2186;49.866;7.986;2024-02-21T08:14:37;100759.28;;;9.98;82.24
4346;BME280;2186;49.866;7.986;2024-02-21T08:17:04;100764.09;;;10.26;81.47
4346;BME280;2186;49.866;7.986;2024-02-21T08:19:30;100754.78;;;10.03;82.35
4346;BME280;2186;49.866;7.986;2024-02-21T08:21:57;100760.09;;;10.03;80.90
4346;BME280;2186;49.866;7.986;2024-02-21T08:24:24;100753.56;;;10.21;81.30
4346;BME280;2186;49.866;7.986;2024-02-21T08:26:50;100754.66;;;10.09;81.40
4346;BME280;2186;49.866;7.986;2024-02-21T08:29:16;100754.13;;;10.37;80.73
4346;BME280;2186;49.866;7.986;2024-02-21T08:31:43;100751.69;;;10.26;80.29
4346;BME280;2186;49.866;7.986;2024-02-21T08:34:10;100754.47;;;10.19;81.34
4346;BME280;2186;49.866;7.986;2024-02-21T08:36:36;100756.03;;;10.32;81.32
4346;BME280;2186;49.866;7.986;2024-02-21T08:39:03;100762.28;;;10.29;81.49
4346;BME280;2186;49.866;7.986;2024-02-21T08:41:32;100754.28;;;10.31;80.66
4346;BME280;2186;49.866;7.986;2024-02-21T08:44:17;100748.69;;;10.45;80.32
4346;BME280;2186;49.866;7.986;2024-02-21T08:46:44;100742.56;;;10.39;80.47
4346;BME280;2186;49.866;7.986;2024-02-21T08:49:10;100746.81;;;10.48;80.17
4346;BME280;2186;49.866;7.986;2024-02-21T08:51:37;100740.34;;;10.61;79.89
4346;BME280;2186;49.866;7.986;2024-02-21T08:54:04;100732.03;;;10.77;78.94
4346;BME280;2186;49.866;7.986;2024-02-21T08:56:30;100723.03;;;10.84;78.54
4346;BME280;2186;49.866;7.986;2024-02-21T08:58:57;100718.56;;;10.84;77.65
4346;BME280;2186;49.866;7.986;2024-02-21T09:01:24;100717.34;;;10.99;78.13
4346;BME280;2186;49.866;7.986;2024-02-21T09:03:51;100712.50;;;11.16;77.54
4346;BME280;2186;49.866;7.986;2024-02-21T09:06:20;100725.41;;;10.94;78.53
4346;BME280;2186;49.866;7.986;2024-02-21T09:08:46;100726.88;;;11.08;78.06
4346;BME280;2186;49.866;7.986;2024-02-21T09:11:12;100713.72;;;11.02;77.48
4346;BME280;2186;49.866;7.986;2024-02-21T09:13:39;100708.19;;;11.11;77.81
4346;BME280;2186;49.866;7.986;2024-02-21T09:16:06;100706.09;;;11.23;77.22
4346;BME280;2186;49.866;7.986;2024-02-21T09:18:32;100700.84;;;11.20;77.43
4346;BME280;2186;49.866;7.986;2024-02-21T09:20:58;100695.72;;;11.13;76.64
4346;BME280;2186;49.866;7.986;2024-02-21T09:23:26;100693.69;;;11.24;76.70
4346;BME280;2186;49.866;7.986;2024-02-21T09:25:53;100690.84;;;11.30;75.73
4346;BME280;2186;49.866;7.986;2024-02-21T09:28:21;100691.47;;;11.41;75.62
4346;BME280;2186;49.866;7.986;2024-02-21T09:30:49;100685.22;;;11.42;75.40
4346;BME280;2186;49.866;7.986;2024-02-21T09:33:15;100683.66;;;11.34;75.31
4346;BME280;2186;49.866;7.986;2024-02-21T09:35:57;100680.91;;;11.38;75.06
4346;BME280;2186;49.866;7.986;2024-02-21T09:38:23;100682.91;;;11.63;74.88
4346;BME280;2186;49.866;7.986;2024-02-21T09:40:59;100680.94;;;11.71;73.90
4346;BME280;2186;49.866;7.986;2024-02-21T09:43:29;100672.84;;;11.74;74.87
4346;BME280;2186;49.866;7.986;2024-02-21T09:45:57;100668.69;;;11.64;73.25
4346;BME280;2186;49.866;7.986;2024-02-21T09:51:16;100651.47;;;11.44;74.37
4346;BME280;2186;49.866;7.986;2024-02-21T09:53:44;100654.84;;;11.49;74.64
4346;BME280;2186;49.866;7.986;2024-02-21T09:56:27;100651.78;;;11.66;74.48
4346;BME280;2186;49.866;7.986;2024-02-21T09:58:54;100649.78;;;11.73;73.83
4346;BME280;2186;49.866;7.986;2024-02-21T10:01:21;100648.75;;;11.80;73.76
4346;BME280;2186;49.866;7.986;2024-02-21T10:04:00;100647.59;;;11.89;72.92
4346;BME280;2186;49.866;7.986;2024-02-21T10:06:26;100644.75;;;11.96;72.51
4346;BME280;2186;49.866;7.986;2024-02-21T10:08:53;100639.75;;;11.84;73.77
4346;BME280;2186;49.866;7.986;2024-02-21T10:11:23;100643.09;;;11.91;72.89
4346;BME280;2186;49.866;7.986;2024-02-21T10:13:51;100637.25;;;11.76;72.49
4346;BME280;2186;49.866;7.986;2024-02-21T10:16:18;100639.56;;;11.90;73.03
4346;BME280;2186;49.866;7.986;2024-02-21T10:18:44;100630.94;;;11.82;72.50
4346;BME280;2186;49.866;7.986;2024-02-21T10:21:11;100632.34;;;11.95;72.83
4346;BME280;2186;49.866;7.986;2024-02-21T10:23:50;100630.81;;;12.16;72.56
4346;BME280;2186;49.866;7.986;2024-02-21T10:26:19;100623.03;;;12.10;72.27
4346;BME280;2186;49.866;7.986;2024-02-21T10:28:46;100615.66;;;12.18;71.43
4346;BME280;2186;49.866;7.986;2024-02-21T10:31:24;100611.75;;;12.30;71.58
4346;BME280;2186;49.866;7.986;2024-02-21T10:36:21;100609.34;;;12.22;71.55
4346;BME280;2186;49.866;7.986;2024-02-21T10:38:48;100599.81;;;12.13;72.53
4346;BME280;2186;49.866;7.986;2024-02-21T10:41:14;100604.84;;;12.24;73.15
4346;BME280;2186;49.866;7.986;2024-02-21T10:43:50;100596.81;;;12.54;72.14
4346;BME280;2186;49.866;7.986;2024-02-21T10:46:22;100600.88;;;12.37;72.71
4346;BME280;2186;49.866;7.986;2024-02-21T10:49:02;100589.19;;;12.41;72.15
4346;BME280;2186;49.866;7.986;2024-02-21T10:51:33;100585.16;;;12.56;72.09
4346;BME280;2186;49.866;7.986;2024-02-21T10:56:49;100584.34;;;12.54;71.75
4346;BME280;2186;49.866;7.986;2024-02-21T10:59:17;100586.78;;;12.34;72.42
4346;BME280;2186;49.866;7.986;2024-02-21T11:01:43;100572.22;;;12.44;71.21
4346;BME280;2186;49.866;7.986;2024-02-21T11:04:11;100573.88;;;12.48;71.12
4346;BME280;2186;49.866;7.986;2024-02-21T11:06:41;100569.38;;;12.50;72.11
4346;BME280;2186;49.866;7.986;2024-02-21T11:09:09;100567.22;;;12.61;71.59
4346;BME280;2186;49.866;7.986;2024-02-21T11:11:38;100569.97;;;12.58;71.77
4346;BME280;2186;49.866;7.986;2024-02-21T11:14:08;100558.59;;;12.53;72.25
4346;BME280;2186;49.866;7.986;2024-02-21T11:16:39;100551.94;;;12.66;71.83
4346;BME280;2186;49.866;7.986;2024-02-21T11:19:19;100541.78;;;12.78;71.73
4346;BME280;2186;49.866;7.986;2024-02-21T11:21:46;100538.19;;;12.79;71.14
4346;BME280;2186;49.866;7.986;2024-02-21T11:24:31;100537.16;;;12.83;71.53
4346;BME280;2186;49.866;7.986;2024-02-21T11:27:14;100525.97;;;12.71;71.91
4346;BME280;2186;49.866;7.986;2024-02-21T11:29:49;100522.19;;;12.79;71.45
4346;BME280;2186;49.866;7.986;2024-02-21T11:32:19;100517.44;;;12.62;72.23
4346;BME280;2186;49.866;7.986;2024-02-21T11:35:04;100520.97;;;12.62;71.92
4346;BME280;2186;49.866;7.986;2024-02-21T11:37:35;100512.50;;;12.76;72.67
4346;BME280;2186;49.866;7.986;2024-02-21T11:40:05;100507.72;;;12.59;72.78
4346;BME280;2186;49.866;7.986;2024-02-21T11:42:33;100511.22;;;12.61;72.69
4346;BME280;2186;49.866;7.986;2024-02-21T11:45:00;100498.38;;;12.72;72.88
4346;BME280;2186;49.866;7.986;2024-02-21T11:47:30;100495.81;;;12.69;72.57
4346;BME280;2186;49.866;7.986;2024-02-21T11:49:57;100482.50;;;12.94;72.95
4346;BME280;2186;49.866;7.986;2024-02-21T11:52:25;100483.69;;;12.86;72.88
4346;BME280;2186;49.866;7.986;2024-02-21T11:54:53;100472.09;;;12.87;73.62
4346;BME280;2186;49.866;7.986;2024-02-21T11:57:21;100466.94;;;12.82;72.60
4346;BME280;2186;49.866;7.986;2024-02-21T11:59:47;100464.09;;;12.87;72.80
4346;BME280;2186;49.866;7.986;2024-02-21T12:02:14;100455.66;;;12.99;73.00
4346;BME280;2186;49.866;7.986;2024-02-21T12:04:42;100446.03;;;12.95;71.94
4346;BME280;2186;49.866;7.986;2024-02-21T12:07:09;100438.16;;;12.92;71.50
4346;BME280;2186;49.866;7.986;2024-02-21T12:09:36;100437.47;;;12.85;71.71
4346;BME280;2186;49.866;7.986;2024-02-21T12:12:04;100432.19;;;13.09;72.36
4346;BME280;2186;49.866;7.986;2024-02-21T12:14:32;100426.53;;;13.18;72.03
4346;BME280;2186;49.866;7.986;2024-02-21T12:17:00;100425.50;;;12.97;71.35
4346;BME280;2186;49.866;7.986;2024-02-21T12:19:32;100420.66;;;12.83;71.79
4346;BME280;2186;49.866;7.986;2024-02-21T12:21:59;100415.94;;;12.66;72.11
4346;BME280;2186;49.866;7.986;2024-02-21T12:24:27;100411.16;;;12.74;71.28
4346;BME280;2186;49.866;7.986;2024-02-21T12:26:55;100397.88;;;12.98;71.87
4346;BME280;2186;49.866;7.986;2024-02-21T12:29:24;100402.19;;;13.02;71.76
4346;BME280;2186;49.866;7.986;2024-02-21T12:31:54;100391.53;;;12.77;72.86
4346;BME280;2186;49.866;7.986;2024-02-21T12:34:23;100379.06;;;12.78;72.82
4346;BME280;2186;49.866;7.986;2024-02-21T12:37:04;100372.06;;;12.98;72.31
4346;BME280;2186;49.866;7.986;2024-02-21T12:39:31;100355.94;;;12.78;72.61
4346;BME280;2186;49.866;7.986;2024-02-21T12:41:59;100359.91;;;12.91;73.12
4346;BME280;2186;49.866;7.986;2024-02-21T12:44:25;100348.34;;;12.91;72.39
4346;BME280;2186;49.866;7.986;2024-02-21T12:46:52;100342.16;;;12.90;70.57
4346;BME280;2186;49.866;7.986;2024-02-21T12:49:21;100348.09;;;13.22;71.65
4346;BME280;2186;49.866;7.986;2024-02-21T12:51:48;100343.56;;;13.24;71.49
4346;BME280;2186;49.866;7.986;2024-02-21T12:54:14;100334.00;;;13.18;72.07
4346;BME280;2186;49.866;7.986;2024-02-21T12:56:41;100334.91;;;13.17;71.91
4346;BME280;2186;49.866;7.986;2024-02-21T12:59:08;100335.50;;;13.25;71.68
4346;BME280;2186;49.866;7.986;2024-02-21T13:01:37;100315.72;;;13.31;70.85
4346;BME280;2186;49.866;7.986;2024-02-21T13:04:07;100331.16;;;13.23;70.49
4346;BME280;2186;49.866;7.986;2024-02-21T13:06:33;100313.47;;;13.20;70.90
4346;BME280;2186;49.866;7.986;2024-02-21T13:09:00;100311.34;;;13.28;71.20
4346;BME280;2186;49.866;7.986;2024-02-21T13:11:30;100310.53;;;13.03;70.79
4346;BME280;2186;49.866;7.986;2024-02-21T13:13:58;100304.09;;;13.09;70.65
4346;BME280;2186;49.866;7.986;2024-02-21T13:16:25;100299.09;;;12.99;70.61
4346;BME280;2186;49.866;7.986;2024-02-21T13:18:53;100292.66;;;13.05;70.09
4346;BME280;2186;49.866;7.986;2024-02-21T13:21:20;100276.25;;;13.16;70.37
4346;BME280;2186;49.866;7.986;2024-02-21T13:23:46;100270.06;;;13.37;68.33